sensor_id;sensor_type;location;lat;lon;timestamp;P1;durP1;ratioP1;P2;durP2;ratioP2
18512;SDS011;9385;48.380;9.744;2022-12-26T00:01:59;17.00;;;10.73;;
18512;SDS011;9385;48.380;9.744;2022-12-26T00:04:26;13.87;;;9.80;;
18512;SDS011;9385;48.380;9.744;2022-12-26T00:06:53;15.70;;;10.27;;
18512;SDS011;9385;48.380;9.744;2022-12-26T00:09:20;16.08;;;10.38;;
18512;SDS011;9385;48.380;9.744;2022-12-26T00:11:48;14.93;;;9.52;;
18512;SDS011;9385;48.380;9.744;2022-12-26T00:14:15;16.58;;;10.15;;
18512;SDS011;9385;48.380;9.744;2022-12-26T00:16:42;13.93;;;9.35;;
18512;SDS011;9385;48.380;9.744;2022-12-26T00:19:11;14.70;;;10.20;;
18512;SDS011;9385;48.380;9.744;2022-12-26T00:21:37;16.08;;;10.27;;
18512;SDS011;9385;48.380;9.744;2022-12-26T00:24:04;14.30;;;9.70;;
18512;SDS011;9385;48.380;9.744;2022-12-26T00:26:32;16.23;;;10.45;;
18512;SDS011;9385;48.380;9.744;2022-12-26T00:29:01;15.03;;;10.50;;
18512;SDS011;9385;48.380;9.744;2022-12-26T00:31:30;16.05;;;10.23;;
18512;SDS011;9385;48.380;9.744;2022-12-26T00:33:58;15.20;;;10.20;;
18512;SDS011;9385;48.380;9.744;2022-12-26T00:36:25;16.27;;;10.77;;
18512;SDS011;9385;48.380;9.744;2022-12-26T00:38:53;18.48;;;10.50;;
18512;SDS011;9385;48.380;9.744;2022-12-26T00:41:21;11.83;;;8.33;;
18512;SDS011;9385;48.380;9.744;2022-12-26T00:43:49;15.20;;;9.20;;
18512;SDS011;9385;48.380;9.744;2022-12-26T00:46:17;12.48;;;8.15;;
18512;SDS011;9385;48.380;9.744;2022-12-26T00:48:44;14.18;;;9.00;;
18512;SDS011;9385;48.380;9.744;2022-12-26T00:51:11;15.05;;;8.80;;
18512;SDS011;9385;48.380;9.744;2022-12-26T00:53:41;19.25;;;12.43;;
18512;SDS011;9385;48.380;9.744;2022-12-26T00:56:08;20.40;;;10.35;;
18512;SDS011;9385;48.380;9.744;2022-12-26T00:58:34;17.30;;;10.68;;
18512;SDS011;9385;48.380;9.744;2022-12-26T01:01:04;16.20;;;9.82;;
18512;SDS011;9385;48.380;9.744;2022-12-26T01:03:33;14.88;;;9.40;;
18512;SDS011;9385;48.380;9.744;2022-12-26T01:06:00;12.73;;;8.35;;
18512;SDS011;9385;48.380;9.744;2022-12-26T01:08:29;12.85;;;8.38;;
18512;SDS011;9385;48.380;9.744;2022-12-26T01:10:56;12.87;;;8.73;;
18512;SDS011;9385;48.380;9.744;2022-12-26T01:13:23;14.27;;;9.75;;
18512;SDS011;9385;48.380;9.744;2022-12-26T01:15:50;14.85;;;8.55;;
18512;SDS011;9385;48.380;9.744;2022-12-26T01:18:18;16.98;;;9.90;;
18512;SDS011;9385;48.380;9.744;2022-12-26T01:20:46;14.27;;;8.20;;
18512;SDS011;9385;48.380;9.744;2022-12-26T01:23:14;12.85;;;7.75;;
18512;SDS011;9385;48.380;9.744;2022-12-26T01:25:41;12.73;;;8.30;;
18512;SDS011;9385;48.380;9.744;2022-12-26T01:28:08;12.98;;;8.73;;
18512;SDS011;9385;48.380;9.744;2022-12-26T01:30:35;16.07;;;7.97;;
18512;SDS011;9385;48.380;9.744;2022-12-26T01:33:02;11.70;;;7.63;;
18512;SDS011;9385;48.380;9.744;2022-12-26T01:35:29;14.45;;;9.02;;
18512;SDS011;9385;48.380;9.744;2022-12-26T01:37:57;23.95;;;14.27;;
18512;SDS011;9385;48.380;9.744;2022-12-26T01:40:24;20.33;;;11.77;;
18512;SDS011;9385;48.380;9.744;2022-12-26T01:42:51;18.35;;;10.90;;
18512;SDS011;9385;48.380;9.744;2022-12-26T01:45:22;15.57;;;10.18;;
18512;SDS011;9385;48.380;9.744;2022-12-26T01:47:53;15.50;;;8.90;;
18512;SDS011;9385;48.380;9.744;2022-12-26T01:50:26;12.98;;;8.13;;
18512;SDS011;9385;48.380;9.744;2022-12-26T01:53:01;12.70;;;8.00;;
18512;SDS011;9385;48.380;9.744;2022-12-26T01:55:31;13.05;;;8.65;;
18512;SDS011;9385;48.380;9.744;2022-12-26T01:58:00;14.67;;;8.60;;
18512;SDS011;9385;48.380;9.744;2022-12-26T02:00:31;13.68;;;8.57;;
18512;SDS011;9385;48.380;9.744;2022-12-26T02:03:01;12.05;;;7.80;;
18512;SDS011;9385;48.380;9.744;2022-12-26T02:05:45;13.98;;;8.65;;
18512;SDS011;9385;48.380;9.744;2022-12-26T02:08:15;12.65;;;7.65;;
18512;SDS011;9385;48.380;9.744;2022-12-26T02:10:47;14.30;;;8.00;;
18512;SDS011;9385;48.380;9.744;2022-12-26T02:13:16;14.15;;;7.93;;
18512;SDS011;9385;48.380;9.744;2022-12-26T02:15:44;14.15;;;9.43;;
18512;SDS011;9385;48.380;9.744;2022-12-26T02:18:12;14.95;;;8.93;;
18512;SDS011;9385;48.380;9.744;2022-12-26T02:20:40;13.57;;;8.60;;
18512;SDS011;9385;48.380;9.744;2022-12-26T02:32:36;10.93;;;6.82;;
18512;SDS011;9385;48.380;9.744;2022-12-26T02:35:31;10.00;;;6.82;;
18512;SDS011;9385;48.380;9.744;2022-12-26T02:38:11;13.35;;;8.00;;
18512;SDS011;9385;48.380;9.744;2022-12-26T02:40:51;12.82;;;6.72;;
18512;SDS011;9385;48.380;9.744;2022-12-26T02:43:26;11.27;;;6.70;;
18512;SDS011;9385;48.380;9.744;2022-12-26T02:46:03;11.63;;;6.60;;
18512;SDS011;9385;48.380;9.744;2022-12-26T02:49:08;11.38;;;6.97;;
18512;SDS011;9385;48.380;9.744;2022-12-26T02:51:45;10.50;;;7.10;;
18512;SDS011;9385;48.380;9.744;2022-12-26T02:54:42;9.93;;;6.32;;
18512;SDS011;9385;48.380;9.744;2022-12-26T02:57:33;10.02;;;6.50;;
18512;SDS011;9385;48.380;9.744;2022-12-26T03:00:20;9.15;;;6.28;;
18512;SDS011;9385;48.380;9.744;2022-12-26T03:03:06;8.63;;;5.95;;
18512;SDS011;9385;48.380;9.744;2022-12-26T03:05:56;9.20;;;5.95;;
18512;SDS011;9385;48.380;9.744;2022-12-26T03:08:44;8.00;;;5.85;;
18512;SDS011;9385;48.380;9.744;2022-12-26T03:11:33;8.80;;;6.10;;
18512;SDS011;9385;48.380;9.744;2022-12-26T03:14:21;8.68;;;5.80;;
18512;SDS011;9385;48.380;9.744;2022-12-26T03:16:53;10.52;;;6.35;;
18512;SDS011;9385;48.380;9.744;2022-12-26T03:19:41;8.50;;;6.13;;
18512;SDS011;9385;48.380;9.744;2022-12-26T03:22:26;9.15;;;6.38;;
18512;SDS011;9385;48.380;9.744;2022-12-26T03:24:57;13.83;;;7.03;;
18512;SDS011;9385;48.380;9.744;2022-12-26T03:27:41;10.50;;;6.93;;
18512;SDS011;9385;48.380;9.744;2022-12-26T03:30:08;10.35;;;6.88;;
18512;SDS011;9385;48.380;9.744;2022-12-26T03:32:54;11.27;;;7.22;;
18512;SDS011;9385;48.380;9.744;2022-12-26T03:35:21;14.98;;;7.18;;
18512;SDS011;9385;48.380;9.744;2022-12-26T03:37:52;10.23;;;7.03;;
18512;SDS011;9385;48.380;9.744;2022-12-26T03:40:32;11.37;;;7.33;;
18512;SDS011;9385;48.380;9.744;2022-12-26T03:43:26;9.88;;;6.80;;
18512;SDS011;9385;48.380;9.744;2022-12-26T03:46:24;10.38;;;7.10;;
18512;SDS011;9385;48.380;9.744;2022-12-26T03:49:17;10.63;;;7.45;;
18512;SDS011;9385;48.380;9.744;2022-12-26T03:52:08;11.63;;;7.57;;
18512;SDS011;9385;48.380;9.744;2022-12-26T03:55:00;11.45;;;8.13;;
18512;SDS011;9385;48.380;9.744;2022-12-26T03:57:53;12.23;;;7.70;;
18512;SDS011;9385;48.380;9.744;2022-12-26T04:00:43;11.32;;;7.47;;
18512;SDS011;9385;48.380;9.744;2022-12-26T04:03:29;11.65;;;7.40;;
18512;SDS011;9385;48.380;9.744;2022-12-26T04:06:18;10.97;;;7.80;;
18512;SDS011;9385;48.380;9.744;2022-12-26T04:09:06;11.60;;;8.00;;
18512;SDS011;9385;48.380;9.744;2022-12-26T04:11:56;12.40;;;8.30;;
18512;SDS011;9385;48.380;9.744;2022-12-26T04:14:44;11.20;;;8.27;;
18512;SDS011;9385;48.380;9.744;2022-12-26T04:17:34;12.43;;;8.40;;
18512;SDS011;9385;48.380;9.744;2022-12-26T04:20:23;13.48;;;8.68;;
18512;SDS011;9385;48.380;9.744;2022-12-26T04:23:08;12.90;;;8.13;;
18512;SDS011;9385;48.380;9.744;2022-12-26T04:25:57;10.70;;;7.85;;
18512;SDS011;9385;48.380;9.744;2022-12-26T04:28:46;12.77;;;8.65;;
18512;SDS011;9385;48.380;9.744;2022-12-26T04:31:32;11.43;;;8.50;;
18512;SDS011;9385;48.380;9.744;2022-12-26T04:34:25;13.10;;;9.38;;
18512;SDS011;9385;48.380;9.744;2022-12-26T04:37:16;15.73;;;9.00;;
18512;SDS011;9385;48.380;9.744;2022-12-26T04:40:05;12.50;;;9.13;;
18512;SDS011;9385;48.380;9.744;2022-12-26T04:42:53;14.18;;;8.73;;
18512;SDS011;9385;48.380;9.744;2022-12-26T04:45:40;15.27;;;8.50;;
18512;SDS011;9385;48.380;9.744;2022-12-26T04:48:07;10.38;;;7.97;;
18512;SDS011;9385;48.380;9.744;2022-12-26T04:50:52;14.15;;;8.85;;
18512;SDS011;9385;48.380;9.744;2022-12-26T04:53:19;13.10;;;8.52;;
18512;SDS011;9385;48.380;9.744;2022-12-26T04:55:47;12.45;;;8.50;;
18512;SDS011;9385;48.380;9.744;2022-12-26T04:58:13;15.60;;;9.05;;
18512;SDS011;9385;48.380;9.744;2022-12-26T05:00:43;13.82;;;8.90;;
18512;SDS011;9385;48.380;9.744;2022-12-26T05:03:11;13.70;;;8.37;;
18512;SDS011;9385;48.380;9.744;2022-12-26T05:05:56;12.40;;;7.93;;
18512;SDS011;9385;48.380;9.744;2022-12-26T05:08:41;11.93;;;8.37;;
18512;SDS011;9385;48.380;9.744;2022-12-26T05:11:26;12.15;;;8.07;;
18512;SDS011;9385;48.380;9.744;2022-12-26T05:13:55;11.43;;;7.80;;
18512;SDS011;9385;48.380;9.744;2022-12-26T05:16:26;11.00;;;7.05;;
18512;SDS011;9385;48.380;9.744;2022-12-26T05:19:10;11.68;;;6.65;;
18512;SDS011;9385;48.380;9.744;2022-12-26T05:21:56;12.48;;;7.15;;
18512;SDS011;9385;48.380;9.744;2022-12-26T05:24:41;12.17;;;7.77;;
18512;SDS011;9385;48.380;9.744;2022-12-26T05:27:27;12.45;;;7.78;;
18512;SDS011;9385;48.380;9.744;2022-12-26T05:30:16;13.52;;;8.48;;
18512;SDS011;9385;48.380;9.744;2022-12-26T05:32:44;11.70;;;7.65;;
18512;SDS011;9385;48.380;9.744;2022-12-26T05:35:29;13.65;;;7.93;;
18512;SDS011;9385;48.380;9.744;2022-12-26T05:37:57;13.70;;;8.27;;
18512;SDS011;9385;48.380;9.744;2022-12-26T05:40:23;11.65;;;7.97;;
18512;SDS011;9385;48.380;9.744;2022-12-26T05:42:50;12.55;;;8.32;;
18512;SDS011;9385;48.380;9.744;2022-12-26T05:45:17;16.17;;;9.45;;
18512;SDS011;9385;48.380;9.744;2022-12-26T05:47:45;11.35;;;8.15;;
18512;SDS011;9385;48.380;9.744;2022-12-26T05:50:12;12.90;;;9.20;;
18512;SDS011;9385;48.380;9.744;2022-12-26T05:52:39;11.52;;;8.05;;
18512;SDS011;9385;48.380;9.744;2022-12-26T05:55:06;13.52;;;8.98;;
18512;SDS011;9385;48.380;9.744;2022-12-26T05:57:33;13.23;;;9.10;;
18512;SDS011;9385;48.380;9.744;2022-12-26T05:59:59;14.57;;;9.73;;
18512;SDS011;9385;48.380;9.744;2022-12-26T06:02:28;14.85;;;9.45;;
18512;SDS011;9385;48.380;9.744;2022-12-26T06:04:56;14.18;;;9.70;;
18512;SDS011;9385;48.380;9.744;2022-12-26T06:07:22;16.30;;;10.02;;
18512;SDS011;9385;48.380;9.744;2022-12-26T06:09:49;15.90;;;10.43;;
18512;SDS011;9385;48.380;9.744;2022-12-26T06:12:16;14.95;;;9.75;;
18512;SDS011;9385;48.380;9.744;2022-12-26T06:14:42;14.57;;;10.23;;
18512;SDS011;9385;48.380;9.744;2022-12-26T06:17:09;16.55;;;10.10;;
18512;SDS011;9385;48.380;9.744;2022-12-26T06:19:38;15.27;;;9.70;;
18512;SDS011;9385;48.380;9.744;2022-12-26T06:22:06;14.25;;;9.65;;
18512;SDS011;9385;48.380;9.744;2022-12-26T06:24:33;15.88;;;10.25;;
18512;SDS011;9385;48.380;9.744;2022-12-26T06:27:00;16.33;;;9.55;;
18512;SDS011;9385;48.380;9.744;2022-12-26T06:29:27;14.13;;;9.60;;
18512;SDS011;9385;48.380;9.744;2022-12-26T06:31:53;14.52;;;9.25;;
18512;SDS011;9385;48.380;9.744;2022-12-26T06:34:20;15.13;;;9.35;;
18512;SDS011;9385;48.380;9.744;2022-12-26T06:36:47;14.73;;;9.85;;
18512;SDS011;9385;48.380;9.744;2022-12-26T06:39:15;13.70;;;9.35;;
18512;SDS011;9385;48.380;9.744;2022-12-26T06:41:42;14.93;;;10.20;;
18512;SDS011;9385;48.380;9.744;2022-12-26T06:44:09;14.40;;;9.80;;
18512;SDS011;9385;48.380;9.744;2022-12-26T06:46:36;14.50;;;9.63;;
18512;SDS011;9385;48.380;9.744;2022-12-26T06:49:02;14.85;;;10.20;;
18512;SDS011;9385;48.380;9.744;2022-12-26T06:51:31;15.83;;;10.00;;
18512;SDS011;9385;48.380;9.744;2022-12-26T06:53:59;14.52;;;9.27;;
18512;SDS011;9385;48.380;9.744;2022-12-26T06:56:28;15.90;;;9.70;;
18512;SDS011;9385;48.380;9.744;2022-12-26T06:58:57;14.45;;;9.50;;
18512;SDS011;9385;48.380;9.744;2022-12-26T07:01:25;15.23;;;10.13;;
18512;SDS011;9385;48.380;9.744;2022-12-26T07:03:54;15.48;;;10.25;;
18512;SDS011;9385;48.380;9.744;2022-12-26T07:06:22;24.63;;;14.45;;
18512;SDS011;9385;48.380;9.744;2022-12-26T07:08:50;17.30;;;10.90;;
18512;SDS011;9385;48.380;9.744;2022-12-26T07:11:18;24.75;;;13.70;;
18512;SDS011;9385;48.380;9.744;2022-12-26T07:13:48;16.98;;;10.85;;
18512;SDS011;9385;48.380;9.744;2022-12-26T07:16:15;17.52;;;11.88;;
18512;SDS011;9385;48.380;9.744;2022-12-26T07:18:42;29.17;;;16.90;;
18512;SDS011;9385;48.380;9.744;2022-12-26T07:21:10;25.63;;;15.40;;
18512;SDS011;9385;48.380;9.744;2022-12-26T07:23:37;22.25;;;14.70;;
18512;SDS011;9385;48.380;9.744;2022-12-26T07:26:05;23.55;;;14.30;;
18512;SDS011;9385;48.380;9.744;2022-12-26T07:28:32;22.13;;;12.37;;
18512;SDS011;9385;48.380;9.744;2022-12-26T07:31:00;19.23;;;12.25;;
18512;SDS011;9385;48.380;9.744;2022-12-26T07:33:27;21.38;;;14.68;;
18512;SDS011;9385;48.380;9.744;2022-12-26T07:35:57;18.35;;;12.23;;
18512;SDS011;9385;48.380;9.744;2022-12-26T07:38:24;20.52;;;13.48;;
18512;SDS011;9385;48.380;9.744;2022-12-26T07:40:53;24.40;;;14.82;;
18512;SDS011;9385;48.380;9.744;2022-12-26T07:43:20;19.17;;;12.27;;
18512;SDS011;9385;48.380;9.744;2022-12-26T07:45:47;20.67;;;12.70;;
18512;SDS011;9385;48.380;9.744;2022-12-26T07:48:15;20.90;;;13.25;;
18512;SDS011;9385;48.380;9.744;2022-12-26T07:50:42;22.77;;;14.27;;
18512;SDS011;9385;48.380;9.744;2022-12-26T07:53:11;21.15;;;13.60;;
18512;SDS011;9385;48.380;9.744;2022-12-26T07:55:38;21.88;;;13.70;;
18512;SDS011;9385;48.380;9.744;2022-12-26T07:58:05;22.60;;;15.05;;
18512;SDS011;9385;48.380;9.744;2022-12-26T08:00:32;19.55;;;13.15;;
18512;SDS011;9385;48.380;9.744;2022-12-26T08:02:58;19.83;;;12.87;;
18512;SDS011;9385;48.380;9.744;2022-12-26T08:05:27;19.98;;;12.35;;
18512;SDS011;9385;48.380;9.744;2022-12-26T08:07:54;21.80;;;13.93;;
18512;SDS011;9385;48.380;9.744;2022-12-26T08:10:21;27.48;;;17.00;;
18512;SDS011;9385;48.380;9.744;2022-12-26T08:12:47;29.00;;;19.48;;
18512;SDS011;9385;48.380;9.744;2022-12-26T08:15:14;25.08;;;16.48;;
18512;SDS011;9385;48.380;9.744;2022-12-26T08:17:41;20.60;;;13.83;;
18512;SDS011;9385;48.380;9.744;2022-12-26T08:20:11;29.73;;;18.80;;
18512;SDS011;9385;48.380;9.744;2022-12-26T08:22:39;20.20;;;13.93;;
18512;SDS011;9385;48.380;9.744;2022-12-26T08:25:06;23.00;;;13.80;;
18512;SDS011;9385;48.380;9.744;2022-12-26T08:27:34;22.48;;;14.55;;
18512;SDS011;9385;48.380;9.744;2022-12-26T08:30:02;21.75;;;13.57;;
18512;SDS011;9385;48.380;9.744;2022-12-26T08:32:30;19.00;;;12.63;;
18512;SDS011;9385;48.380;9.744;2022-12-26T08:34:56;21.40;;;12.32;;
18512;SDS011;9385;48.380;9.744;2022-12-26T08:37:23;19.20;;;11.55;;
18512;SDS011;9385;48.380;9.744;2022-12-26T08:39:51;22.65;;;14.93;;
18512;SDS011;9385;48.380;9.744;2022-12-26T08:42:18;20.02;;;12.90;;
18512;SDS011;9385;48.380;9.744;2022-12-26T08:44:45;19.00;;;12.70;;
18512;SDS011;9385;48.380;9.744;2022-12-26T08:47:12;21.27;;;13.40;;
18512;SDS011;9385;48.380;9.744;2022-12-26T08:49:39;22.67;;;14.80;;
18512;SDS011;9385;48.380;9.744;2022-12-26T08:52:06;24.58;;;14.82;;
18512;SDS011;9385;48.380;9.744;2022-12-26T08:54:33;24.60;;;14.98;;
18512;SDS011;9385;48.380;9.744;2022-12-26T08:57:01;21.73;;;12.85;;
18512;SDS011;9385;48.380;9.744;2022-12-26T08:59:28;17.83;;;12.40;;
18512;SDS011;9385;48.380;9.744;2022-12-26T09:01:55;18.98;;;11.40;;
18512;SDS011;9385;48.380;9.744;2022-12-26T09:04:22;17.20;;;10.57;;
18512;SDS011;9385;48.380;9.744;2022-12-26T09:06:48;16.77;;;10.95;;
18512;SDS011;9385;48.380;9.744;2022-12-26T09:09:15;16.45;;;10.57;;
18512;SDS011;9385;48.380;9.744;2022-12-26T09:11:42;16.43;;;11.00;;
18512;SDS011;9385;48.380;9.744;2022-12-26T09:14:10;22.58;;;12.88;;
18512;SDS011;9385;48.380;9.744;2022-12-26T09:16:38;19.27;;;11.65;;
18512;SDS011;9385;48.380;9.744;2022-12-26T09:19:08;19.25;;;11.52;;
18512;SDS011;9385;48.380;9.744;2022-12-26T09:21:37;15.95;;;10.43;;
18512;SDS011;9385;48.380;9.744;2022-12-26T09:24:05;15.48;;;10.15;;
18512;SDS011;9385;48.380;9.744;2022-12-26T09:26:36;17.42;;;10.05;;
18512;SDS011;9385;48.380;9.744;2022-12-26T09:29:03;17.70;;;10.23;;
18512;SDS011;9385;48.380;9.744;2022-12-26T09:31:32;17.38;;;10.30;;
18512;SDS011;9385;48.380;9.744;2022-12-26T09:34:01;17.13;;;9.80;;
18512;SDS011;9385;48.380;9.744;2022-12-26T09:36:28;15.97;;;9.77;;
18512;SDS011;9385;48.380;9.744;2022-12-26T09:38:56;15.18;;;10.48;;
18512;SDS011;9385;48.380;9.744;2022-12-26T09:41:28;19.38;;;11.90;;
18512;SDS011;9385;48.380;9.744;2022-12-26T09:44:14;17.63;;;9.47;;
18512;SDS011;9385;48.380;9.744;2022-12-26T09:46:47;18.08;;;10.98;;
18512;SDS011;9385;48.380;9.744;2022-12-26T09:49:25;17.75;;;9.60;;
18512;SDS011;9385;48.380;9.744;2022-12-26T09:51:57;16.93;;;10.03;;
18512;SDS011;9385;48.380;9.744;2022-12-26T09:54:27;15.60;;;9.73;;
18512;SDS011;9385;48.380;9.744;2022-12-26T09:56:58;16.27;;;9.88;;
18512;SDS011;9385;48.380;9.744;2022-12-26T09:59:27;15.68;;;10.25;;
18512;SDS011;9385;48.380;9.744;2022-12-26T10:01:58;17.80;;;9.55;;
18512;SDS011;9385;48.380;9.744;2022-12-26T10:04:26;16.38;;;9.82;;
18512;SDS011;9385;48.380;9.744;2022-12-26T10:06:56;18.75;;;10.10;;
18512;SDS011;9385;48.380;9.744;2022-12-26T10:12:19;17.15;;;9.80;;
18512;SDS011;9385;48.380;9.744;2022-12-26T10:14:58;16.70;;;10.57;;
18512;SDS011;9385;48.380;9.744;2022-12-26T10:17:38;18.33;;;10.73;;
18512;SDS011;9385;48.380;9.744;2022-12-26T10:20:13;17.60;;;10.38;;
18512;SDS011;9385;48.380;9.744;2022-12-26T10:23:03;18.30;;;10.33;;
18512;SDS011;9385;48.380;9.744;2022-12-26T10:25:49;18.25;;;11.45;;
18512;SDS011;9385;48.380;9.744;2022-12-26T10:28:22;20.20;;;11.55;;
18512;SDS011;9385;48.380;9.744;2022-12-26T10:30:53;22.48;;;13.13;;
18512;SDS011;9385;48.380;9.744;2022-12-26T10:33:32;20.48;;;12.82;;
18512;SDS011;9385;48.380;9.744;2022-12-26T10:36:03;15.97;;;10.03;;
18512;SDS011;9385;48.380;9.744;2022-12-26T10:38:32;16.17;;;10.48;;
18512;SDS011;9385;48.380;9.744;2022-12-26T10:41:03;17.83;;;10.33;;
18512;SDS011;9385;48.380;9.744;2022-12-26T10:43:37;18.63;;;10.18;;
18512;SDS011;9385;48.380;9.744;2022-12-26T10:46:14;14.32;;;9.25;;
18512;SDS011;9385;48.380;9.744;2022-12-26T10:49:06;17.98;;;9.73;;
18512;SDS011;9385;48.380;9.744;2022-12-26T10:51:35;17.20;;;9.90;;
18512;SDS011;9385;48.380;9.744;2022-12-26T10:54:07;15.05;;;9.32;;
18512;SDS011;9385;48.380;9.744;2022-12-26T10:56:37;18.70;;;10.80;;
18512;SDS011;9385;48.380;9.744;2022-12-26T10:59:05;17.13;;;10.23;;
18512;SDS011;9385;48.380;9.744;2022-12-26T11:01:38;26.90;;;9.75;;
18512;SDS011;9385;48.380;9.744;2022-12-26T11:04:15;16.52;;;8.73;;
18512;SDS011;9385;48.380;9.744;2022-12-26T11:06:47;18.80;;;9.50;;
18512;SDS011;9385;48.380;9.744;2022-12-26T11:12:03;20.08;;;10.40;;
18512;SDS011;9385;48.380;9.744;2022-12-26T11:14:33;14.43;;;9.85;;
18512;SDS011;9385;48.380;9.744;2022-12-26T11:17:02;14.85;;;9.65;;
18512;SDS011;9385;48.380;9.744;2022-12-26T11:19:33;17.15;;;9.70;;
18512;SDS011;9385;48.380;9.744;2022-12-26T11:22:20;18.05;;;11.02;;
18512;SDS011;9385;48.380;9.744;2022-12-26T11:25:01;17.77;;;12.13;;
18512;SDS011;9385;48.380;9.744;2022-12-26T11:27:36;18.48;;;12.05;;
18512;SDS011;9385;48.380;9.744;2022-12-26T11:30:21;17.45;;;10.95;;
18512;SDS011;9385;48.380;9.744;2022-12-26T11:32:50;16.25;;;10.05;;
18512;SDS011;9385;48.380;9.744;2022-12-26T11:35:45;18.00;;;10.50;;
18512;SDS011;9385;48.380;9.744;2022-12-26T11:38:18;16.83;;;10.80;;
18512;SDS011;9385;48.380;9.744;2022-12-26T11:41:03;17.23;;;10.02;;
18512;SDS011;9385;48.380;9.744;2022-12-26T11:43:52;12.43;;;8.15;;
18512;SDS011;9385;48.380;9.744;2022-12-26T11:46:20;5.33;;;3.27;;
18512;SDS011;9385;48.380;9.744;2022-12-26T11:48:58;6.90;;;4.70;;
18512;SDS011;9385;48.380;9.744;2022-12-26T11:51:37;5.47;;;3.55;;
18512;SDS011;9385;48.380;9.744;2022-12-26T11:54:16;2.90;;;1.80;;
18512;SDS011;9385;48.380;9.744;2022-12-26T11:56:58;2.35;;;1.50;;
18512;SDS011;9385;48.380;9.744;2022-12-26T11:59:42;3.65;;;1.20;;
18512;SDS011;9385;48.380;9.744;2022-12-26T12:02:17;2.42;;;1.20;;
18512;SDS011;9385;48.380;9.744;2022-12-26T12:04:49;2.65;;;1.40;;
18512;SDS011;9385;48.380;9.744;2022-12-26T12:07:24;2.53;;;1.27;;
18512;SDS011;9385;48.380;9.744;2022-12-26T12:10:29;2.97;;;1.10;;
18512;SDS011;9385;48.380;9.744;2022-12-26T12:13:10;1.45;;;0.80;;
18512;SDS011;9385;48.380;9.744;2022-12-26T12:15:48;1.05;;;0.80;;
18512;SDS011;9385;48.380;9.744;2022-12-26T12:18:21;1.70;;;0.80;;
18512;SDS011;9385;48.380;9.744;2022-12-26T12:20:58;1.27;;;1.00;;
18512;SDS011;9385;48.380;9.744;2022-12-26T12:23:48;1.45;;;0.90;;
18512;SDS011;9385;48.380;9.744;2022-12-26T12:26:25;2.20;;;1.00;;
18512;SDS011;9385;48.380;9.744;2022-12-26T12:29:01;3.63;;;1.60;;
18512;SDS011;9385;48.380;9.744;2022-12-26T12:31:41;2.70;;;1.80;;
18512;SDS011;9385;48.380;9.744;2022-12-26T12:34:21;4.65;;;2.60;;
18512;SDS011;9385;48.380;9.744;2022-12-26T12:36:59;1.85;;;1.00;;
18512;SDS011;9385;48.380;9.744;2022-12-26T12:39:41;1.23;;;1.00;;
18512;SDS011;9385;48.380;9.744;2022-12-26T12:42:21;1.40;;;1.20;;
18512;SDS011;9385;48.380;9.744;2022-12-26T12:44:59;2.43;;;1.30;;
18512;SDS011;9385;48.380;9.744;2022-12-26T12:47:37;1.13;;;0.90;;
18512;SDS011;9385;48.380;9.744;2022-12-26T12:50:12;3.33;;;1.80;;
18512;SDS011;9385;48.380;9.744;2022-12-26T12:52:47;5.15;;;2.80;;
18512;SDS011;9385;48.380;9.744;2022-12-26T12:55:25;3.20;;;1.70;;
18512;SDS011;9385;48.380;9.744;2022-12-26T12:58:01;2.95;;;1.60;;
18512;SDS011;9385;48.380;9.744;2022-12-26T13:00:34;3.47;;;1.70;;
18512;SDS011;9385;48.380;9.744;2022-12-26T13:03:08;3.13;;;1.83;;
18512;SDS011;9385;48.380;9.744;2022-12-26T13:05:41;4.18;;;1.70;;
18512;SDS011;9385;48.380;9.744;2022-12-26T13:08:13;5.30;;;2.13;;
18512;SDS011;9385;48.380;9.744;2022-12-26T13:10:46;5.73;;;3.10;;
18512;SDS011;9385;48.380;9.744;2022-12-26T13:13:19;5.33;;;2.50;;
18512;SDS011;9385;48.380;9.744;2022-12-26T13:15:51;5.43;;;2.20;;
18512;SDS011;9385;48.380;9.744;2022-12-26T13:18:21;6.72;;;2.60;;
18512;SDS011;9385;48.380;9.744;2022-12-26T13:20:52;4.57;;;2.70;;
18512;SDS011;9385;48.380;9.744;2022-12-26T13:23:30;5.40;;;2.78;;
18512;SDS011;9385;48.380;9.744;2022-12-26T13:26:21;3.15;;;1.77;;
18512;SDS011;9385;48.380;9.744;2022-12-26T13:28:54;1.60;;;1.10;;
18512;SDS011;9385;48.380;9.744;2022-12-26T13:31:24;3.15;;;1.30;;
18512;SDS011;9385;48.380;9.744;2022-12-26T13:33:56;1.87;;;0.90;;
18512;SDS011;9385;48.380;9.744;2022-12-26T13:39:25;2.67;;;1.50;;
18512;SDS011;9385;48.380;9.744;2022-12-26T13:42:16;2.85;;;1.20;;
18512;SDS011;9385;48.380;9.744;2022-12-26T13:51:04;1.48;;;0.80;;
18512;SDS011;9385;48.380;9.744;2022-12-26T13:53:55;1.25;;;0.75;;
18512;SDS011;9385;48.380;9.744;2022-12-26T13:59:26;1.10;;;0.75;;
18512;SDS011;9385;48.380;9.744;2022-12-26T14:01:57;1.50;;;0.85;;
18512;SDS011;9385;48.380;9.744;2022-12-26T14:04:38;2.00;;;0.95;;
18512;SDS011;9385;48.380;9.744;2022-12-26T14:07:19;2.67;;;1.60;;
18512;SDS011;9385;48.380;9.744;2022-12-26T14:09:56;4.32;;;1.50;;
18512;SDS011;9385;48.380;9.744;2022-12-26T14:15:27;3.03;;;1.85;;
18512;SDS011;9385;48.380;9.744;2022-12-26T14:18:22;2.47;;;1.40;;
18512;SDS011;9385;48.380;9.744;2022-12-26T14:21:08;1.83;;;1.10;;
18512;SDS011;9385;48.380;9.744;2022-12-26T14:23:45;2.25;;;1.30;;
18512;SDS011;9385;48.380;9.744;2022-12-26T14:26:22;3.00;;;1.58;;
18512;SDS011;9385;48.380;9.744;2022-12-26T14:28:59;3.47;;;1.63;;
18512;SDS011;9385;48.380;9.744;2022-12-26T14:31:38;2.53;;;1.23;;
18512;SDS011;9385;48.380;9.744;2022-12-26T14:34:16;2.25;;;1.35;;
18512;SDS011;9385;48.380;9.744;2022-12-26T14:36:53;4.40;;;1.50;;
18512;SDS011;9385;48.380;9.744;2022-12-26T14:39:28;1.63;;;1.00;;
18512;SDS011;9385;48.380;9.744;2022-12-26T14:42:15;2.58;;;1.30;;
18512;SDS011;9385;48.380;9.744;2022-12-26T14:45:03;3.10;;;1.57;;
18512;SDS011;9385;48.380;9.744;2022-12-26T14:47:40;3.60;;;2.40;;
18512;SDS011;9385;48.380;9.744;2022-12-26T14:53:26;3.17;;;1.90;;
18512;SDS011;9385;48.380;9.744;2022-12-26T14:55:56;1.98;;;1.52;;
18512;SDS011;9385;48.380;9.744;2022-12-26T14:58:26;3.70;;;1.80;;
18512;SDS011;9385;48.380;9.744;2022-12-26T15:04:02;3.25;;;1.45;;
18512;SDS011;9385;48.380;9.744;2022-12-26T15:06:40;3.03;;;1.65;;
18512;SDS011;9385;48.380;9.744;2022-12-26T15:09:36;4.20;;;2.72;;
18512;SDS011;9385;48.380;9.744;2022-12-26T15:15:31;5.28;;;3.05;;
18512;SDS011;9385;48.380;9.744;2022-12-26T15:18:17;3.83;;;1.60;;
18512;SDS011;9385;48.380;9.744;2022-12-26T15:21:13;2.03;;;1.10;;
18512;SDS011;9385;48.380;9.744;2022-12-26T15:24:02;3.05;;;0.90;;
18512;SDS011;9385;48.380;9.744;2022-12-26T15:26:47;1.63;;;1.10;;
18512;SDS011;9385;48.380;9.744;2022-12-26T15:32:23;1.23;;;0.80;;
18512;SDS011;9385;48.380;9.744;2022-12-26T15:35:04;1.50;;;0.90;;
18512;SDS011;9385;48.380;9.744;2022-12-26T15:37:52;1.15;;;0.95;;
18512;SDS011;9385;48.380;9.744;2022-12-26T15:40:28;2.00;;;1.20;;
18512;SDS011;9385;48.380;9.744;2022-12-26T15:43:09;5.03;;;2.88;;
18512;SDS011;9385;48.380;9.744;2022-12-26T15:45:50;9.80;;;4.53;;
18512;SDS011;9385;48.380;9.744;2022-12-26T15:48:29;14.00;;;5.95;;
18512;SDS011;9385;48.380;9.744;2022-12-26T15:51:08;4.32;;;2.05;;
18512;SDS011;9385;48.380;9.744;2022-12-26T15:53:44;2.97;;;1.80;;
18512;SDS011;9385;48.380;9.744;2022-12-26T15:56:29;2.30;;;1.80;;
18512;SDS011;9385;48.380;9.744;2022-12-26T15:59:15;4.50;;;1.90;;
18512;SDS011;9385;48.380;9.744;2022-12-26T16:02:32;2.45;;;1.30;;
18512;SDS011;9385;48.380;9.744;2022-12-26T16:05:10;2.13;;;1.10;;
18512;SDS011;9385;48.380;9.744;2022-12-26T16:08:03;1.60;;;1.10;;
18512;SDS011;9385;48.380;9.744;2022-12-26T16:10:49;1.85;;;1.10;;
18512;SDS011;9385;48.380;9.744;2022-12-26T16:13:33;1.90;;;1.10;;
18512;SDS011;9385;48.380;9.744;2022-12-26T16:16:00;1.60;;;1.10;;